createdAt,value
2018-04-13T00:00:35.137Z,80.90
2018-04-13T00:03:05.843Z,80.50
2018-04-13T00:05:35.746Z,80.50
2018-04-13T00:08:05.676Z,79.90
2018-04-13T00:10:35.509Z,79.90
2018-04-13T00:13:06.175Z,79.60
2018-04-13T00:15:36.068Z,79.50
2018-04-13T00:18:05.981Z,79.20
2018-04-13T00:20:35.919Z,79.00
2018-04-13T00:23:06.657Z,78.20
2018-04-13T00:25:37.249Z,78.20
2018-04-13T00:28:07.867Z,77.10
2018-04-13T00:30:37.695Z,77.10
2018-04-13T00:33:08.334Z,77.70
2018-04-13T00:35:38.925Z,77.70
2018-04-13T00:38:08.766Z,77.70
2018-04-13T00:40:39.712Z,77.40
2018-04-13T00:43:09.626Z,77.40
2018-04-13T00:45:40.482Z,76.20
2018-04-13T00:48:10.408Z,76.20
2018-04-13T00:50:40.235Z,76.00
2018-04-13T00:53:21.178Z,76.00
2018-04-13T00:55:51.007Z,76.30
2018-04-13T00:58:20.885Z,76.20
2018-04-13T01:00:52.011Z,76.00
2018-04-13T01:03:22.698Z,75.90
2018-04-13T01:05:52.625Z,75.80
2018-04-13T01:08:22.639Z,74.30
2018-04-13T01:10:53.312Z,74.70
2018-04-13T01:13:23.976Z,74.70
2018-04-13T01:15:53.884Z,74.50
2018-04-13T01:18:23.759Z,73.10
2018-04-13T01:20:53.672Z,72.90
2018-04-13T01:23:23.538Z,72.70
2018-04-13T01:25:53.488Z,72.20
2018-04-13T01:28:23.347Z,73.00
2018-04-13T01:30:53.994Z,72.10
2018-04-13T01:33:23.878Z,72.10
2018-04-13T01:35:54.490Z,72.10
2018-04-13T01:38:24.366Z,72.10
2018-04-13T01:40:54.573Z,71.90
2018-04-13T01:43:24.465Z,71.70
2018-04-13T01:45:55.105Z,71.10
2018-04-13T01:48:25.755Z,71.20
2018-04-13T01:50:55.638Z,71.10
2018-04-13T01:53:26.856Z,70.30
2018-04-13T01:55:56.689Z,70.30
2018-04-13T01:58:27.374Z,70.30
2018-04-13T02:00:57.257Z,70.20
2018-04-13T02:03:27.122Z,70.00
2018-04-13T02:05:57.142Z,69.50
2018-04-13T02:08:26.982Z,69.30
2018-04-13T02:10:56.881Z,68.80
2018-04-13T02:13:26.811Z,68.40
2018-04-13T02:15:57.415Z,68.20
2018-04-13T02:18:27.284Z,68.10
2018-04-13T02:20:57.095Z,67.90
2018-04-13T02:23:26.911Z,67.80
2018-04-13T02:25:56.670Z,67.60
2018-04-13T02:28:27.360Z,66.70
2018-04-13T02:30:57.190Z,66.60
2018-04-13T02:33:27.804Z,67.00
2018-04-13T02:35:58.172Z,66.20
2018-04-13T02:38:28.012Z,65.60
2018-04-13T02:40:58.609Z,66.00
2018-04-13T02:43:28.421Z,66.00
2018-04-13T02:45:58.544Z,66.00
2018-04-13T02:48:29.279Z,66.50
2018-04-13T02:50:59.058Z,66.30
2018-04-13T02:53:28.898Z,65.60
2018-04-13T02:55:59.481Z,65.20
2018-04-13T02:58:29.305Z,65.10
2018-04-13T03:00:59.108Z,64.80
2018-04-13T03:03:30.091Z,64.20
2018-04-13T03:05:59.905Z,64.30
2018-04-13T03:08:30.486Z,63.80
2018-04-13T03:11:00.382Z,63.80
2018-04-13T03:13:31.014Z,62.70
2018-04-13T03:16:01.746Z,62.50
2018-04-13T03:18:32.303Z,61.80
2018-04-13T03:21:02.061Z,61.80
2018-04-13T03:23:31.890Z,60.80
2018-04-13T03:26:02.531Z,60.00
2018-04-13T03:28:33.102Z,61.10
2018-04-13T03:31:02.898Z,61.10
2018-04-13T03:33:32.709Z,61.00
2018-04-13T03:36:02.572Z,61.30
2018-04-13T03:38:32.370Z,59.30
2018-04-13T03:41:02.412Z,59.80
2018-04-13T03:43:32.437Z,59.10
2018-04-13T03:46:02.616Z,59.70
2018-04-13T03:48:32.754Z,58.50
2018-04-13T03:51:03.057Z,58.70
2018-04-13T03:53:33.236Z,57.80
2018-04-13T03:56:03.423Z,58.80
2018-04-13T03:58:33.533Z,58.50
2018-04-13T04:01:04.557Z,57.50
2018-04-13T04:03:34.332Z,57.50
2018-04-13T04:06:04.812Z,57.00
2018-04-13T04:08:34.658Z,57.60
2018-04-13T04:11:04.657Z,57.00
2018-04-13T04:13:35.509Z,56.30
2018-04-13T04:16:06.072Z,56.80
2018-04-13T04:18:36.187Z,56.80
2018-04-13T04:21:17.022Z,56.40
2018-04-13T04:23:59.153Z,55.80
2018-04-13T04:26:39.927Z,55.80
2018-04-13T04:29:09.797Z,55.50
2018-04-13T04:31:39.675Z,55.90
2018-04-13T04:34:09.480Z,55.90
2018-04-13T04:36:39.291Z,56.30
2018-04-13T04:39:09.142Z,56.20
2018-04-13T04:41:38.905Z,56.40
2018-04-13T04:44:08.993Z,55.90
2018-04-13T04:46:39.556Z,55.80
2018-04-13T04:49:09.373Z,55.80
2018-04-13T04:51:39.448Z,56.10
2018-04-13T04:54:10.043Z,57.90
2018-04-13T04:56:39.803Z,57.80
2018-04-13T04:59:09.642Z,57.60
2018-04-13T05:01:39.452Z,58.60
2018-04-13T05:04:09.248Z,59.10
2018-04-13T05:06:39.867Z,58.10
2018-04-13T05:09:09.671Z,58.70
2018-04-13T05:11:39.652Z,59.30
2018-04-13T05:14:09.782Z,60.00
2018-04-13T05:16:39.957Z,59.00
2018-04-13T05:19:10.244Z,58.30
2018-04-13T05:21:41.219Z,59.30
2018-04-13T05:24:11.204Z,59.20
2018-04-13T05:26:41.836Z,58.60
2018-04-13T05:29:12.375Z,58.60
2018-04-13T05:31:42.215Z,58.60
2018-04-13T05:34:12.006Z,59.30
2018-04-13T05:36:42.841Z,59.30
2018-04-13T05:39:12.681Z,58.60
2018-04-13T05:41:42.474Z,58.90
2018-04-13T05:44:12.306Z,58.30
2018-04-13T05:46:42.484Z,57.90
2018-04-13T05:49:13.387Z,58.10
2018-04-13T05:51:43.252Z,58.00
2018-04-13T05:54:13.950Z,57.10
2018-04-13T05:56:43.762Z,56.50
2018-04-13T05:59:13.586Z,55.90
2018-04-13T06:01:43.625Z,55.00
2018-04-13T06:04:14.573Z,56.10
2018-04-13T06:06:44.565Z,56.00
2018-04-13T06:09:15.118Z,55.20
2018-04-13T06:11:44.910Z,55.20
2018-04-13T06:14:15.957Z,55.30
2018-04-13T06:16:45.790Z,55.90
2018-04-13T06:19:15.586Z,54.40
2018-04-13T06:21:45.460Z,54.10
2018-04-13T06:24:16.168Z,54.30
2018-04-13T06:26:47.191Z,54.10
2018-04-13T06:29:17.008Z,54.80
2018-04-13T06:31:47.082Z,52.90
2018-04-13T06:34:17.686Z,52.80
2018-04-13T06:36:47.658Z,52.80
2018-04-13T06:39:17.922Z,52.50
2018-04-13T06:41:47.710Z,52.90
2018-04-13T06:44:17.578Z,51.00
2018-04-13T06:46:48.175Z,51.70
2018-04-13T06:49:19.342Z,51.60
2018-04-13T06:51:49.134Z,51.50
2018-04-13T06:54:19.247Z,51.10
2018-04-13T06:56:49.070Z,51.00
2018-04-13T06:59:18.869Z,50.90
2018-04-13T07:01:48.995Z,52.20
2018-04-13T07:04:18.795Z,52.40
2018-04-13T07:06:48.612Z,52.50
2018-04-13T07:09:19.684Z,51.90
2018-04-13T07:11:49.545Z,51.90
2018-04-13T07:14:19.370Z,51.70
2018-04-13T07:16:49.287Z,51.60
2018-04-13T07:19:20.362Z,51.10
2018-04-13T07:21:50.245Z,51.10
2018-04-13T07:24:20.083Z,51.20
2018-04-13T07:26:50.906Z,50.20
2018-04-13T07:29:20.973Z,50.20
2018-04-13T07:31:50.807Z,50.80
2018-04-13T07:34:21.623Z,49.90
2018-04-13T07:36:51.395Z,49.80
2018-04-13T07:39:21.216Z,50.10
2018-04-13T07:41:52.101Z,49.60
2018-04-13T07:44:21.944Z,49.00
2018-04-13T07:46:51.934Z,48.90
2018-04-13T07:49:23.428Z,49.40
2018-04-13T07:51:53.257Z,49.40
2018-04-13T07:54:23.773Z,49.60
2018-04-13T07:56:53.537Z,50.30
2018-04-13T07:59:23.734Z,50.30
2018-04-13T08:01:53.575Z,50.30
2018-04-13T08:04:23.363Z,50.00
2018-04-13T08:06:54.131Z,50.30
2018-04-13T08:09:23.935Z,50.00
2018-04-13T08:11:54.673Z,50.50
2018-04-13T08:14:24.524Z,50.50
2018-04-13T08:16:56.152Z,51.00
2018-04-13T08:19:26.567Z,51.00
2018-04-13T08:21:56.323Z,51.60
2018-04-13T08:24:27.830Z,52.60
2018-04-13T08:26:57.688Z,52.60
2018-04-13T08:29:28.324Z,52.70
2018-04-13T08:31:58.894Z,53.20
2018-04-13T08:34:28.718Z,53.20
2018-04-13T08:36:58.569Z,52.50
2018-04-13T08:39:28.527Z,51.80
2018-04-13T08:41:58.318Z,51.90
2018-04-13T08:44:28.914Z,52.20
2018-04-13T08:46:58.730Z,52.20
2018-04-13T08:49:28.583Z,51.50
2018-04-13T08:51:58.402Z,51.10
2018-04-13T08:54:28.523Z,51.50
2018-04-13T08:56:58.448Z,51.20
2018-04-13T08:59:28.598Z,51.30
2018-04-13T09:01:58.367Z,51.30
2018-04-13T09:04:28.543Z,51.50
2018-04-13T09:06:58.294Z,51.70
2018-04-13T09:09:29.109Z,51.70
2018-04-13T09:11:59.744Z,51.30
2018-04-13T09:14:42.081Z,51.20
2018-04-13T09:17:11.903Z,51.10
2018-04-13T09:19:41.755Z,50.90
2018-04-13T09:22:11.537Z,51.00
2018-04-13T09:24:41.324Z,50.90
2018-04-13T09:27:11.111Z,51.80
2018-04-13T09:29:41.713Z,52.60
2018-04-13T09:32:11.498Z,53.20
2018-04-13T09:34:42.548Z,52.40
2018-04-13T09:37:12.346Z,52.70
2018-04-13T09:39:42.138Z,53.00
2018-04-13T09:42:11.996Z,53.50
2018-04-13T09:44:41.776Z,53.40
2018-04-13T09:47:12.653Z,53.90
2018-04-13T09:49:42.463Z,54.00
2018-04-13T09:52:12.230Z,53.80
2018-04-13T09:54:42.021Z,53.40
2018-04-13T09:57:13.054Z,53.20
2018-04-13T09:59:42.848Z,53.20
2018-04-13T10:05:18.196Z,53.60
2018-04-13T10:07:48.001Z,54.80
2018-04-13T10:10:17.772Z,55.60
2018-04-13T10:12:47.626Z,55.40
2018-04-13T10:15:17.769Z,55.50
2018-04-13T10:17:48.413Z,56.30
2018-04-13T10:20:18.990Z,56.70
2018-04-13T10:22:48.863Z,56.70
2018-04-13T10:25:18.675Z,57.40
2018-04-13T10:27:49.302Z,58.10
2018-04-13T10:30:19.834Z,58.20
2018-04-13T10:32:50.644Z,58.60
2018-04-13T10:35:20.413Z,58.60
2018-04-13T10:37:50.163Z,58.80
2018-04-13T10:40:19.962Z,58.90
2018-04-13T10:42:49.768Z,59.20
2018-04-13T10:45:19.569Z,59.30
2018-04-13T10:47:49.439Z,59.30
2018-04-13T10:50:20.327Z,59.20
2018-04-13T10:52:50.156Z,59.20
2018-04-13T10:55:19.969Z,59.20
2018-04-13T10:57:49.719Z,59.50
2018-04-13T11:00:19.517Z,59.60
2018-04-13T11:02:50.065Z,59.50
2018-04-13T11:05:19.839Z,59.40
2018-04-13T11:07:50.199Z,59.70
2018-04-13T11:10:20.036Z,59.80
2018-04-13T11:12:49.840Z,59.70
2018-04-13T11:15:19.652Z,60.10
2018-04-13T11:17:49.478Z,60.90
2018-04-13T11:20:20.240Z,62.00
2018-04-13T11:22:51.124Z,62.00
2018-04-13T11:25:20.964Z,63.10
2018-04-13T11:27:50.846Z,62.70
2018-04-13T11:30:20.656Z,63.20
2018-04-13T11:32:50.524Z,63.40
2018-04-13T11:35:21.367Z,64.60
2018-04-13T11:37:51.247Z,64.40
2018-04-13T11:40:21.220Z,66.10
2018-04-13T11:42:51.240Z,68.30
2018-04-13T11:45:21.279Z,69.80
2018-04-13T11:47:52.289Z,71.90
2018-04-13T11:50:22.828Z,71.30
2018-04-13T11:52:53.469Z,72.20
2018-04-13T11:55:24.195Z,73.50
2018-04-13T11:57:55.423Z,75.40
2018-04-13T12:00:25.193Z,74.40
2018-04-13T12:02:55.014Z,75.00
2018-04-13T12:05:24.848Z,75.30
2018-04-13T12:07:54.629Z,75.40
2018-04-13T12:10:24.426Z,75.40
2018-04-13T12:12:54.193Z,76.10
2018-04-13T12:15:24.005Z,76.50
2018-04-13T12:17:53.890Z,76.80
2018-04-13T12:20:24.060Z,76.50
2018-04-13T12:22:56.524Z,76.50
2018-04-13T12:25:27.295Z,76.90
2018-04-13T12:27:57.149Z,76.80
2018-04-13T12:30:26.892Z,77.10
2018-04-13T12:32:57.439Z,77.20
2018-04-13T12:35:27.228Z,77.20
2018-04-13T12:37:57.036Z,76.80
2018-04-13T12:40:27.598Z,77.00
2018-04-13T12:42:57.386Z,76.90
2018-04-13T12:45:27.932Z,76.70
2018-04-13T12:47:57.772Z,76.70
2018-04-13T12:50:27.569Z,76.90
2018-04-13T12:52:57.452Z,77.10
2018-04-13T12:55:28.075Z,76.90
2018-04-13T12:57:58.947Z,77.00
2018-04-13T13:00:28.858Z,77.00
2018-04-13T13:02:58.673Z,76.90
2018-04-13T13:05:28.459Z,77.00
2018-04-13T13:07:58.985Z,76.80
2018-04-13T13:10:29.571Z,76.70
2018-04-13T13:12:59.355Z,76.60
2018-04-13T13:15:29.167Z,77.10
2018-04-13T13:17:59.195Z,77.20
2018-04-13T13:20:29.149Z,77.20
2018-04-13T13:22:59.559Z,77.30
2018-04-13T13:25:30.128Z,77.30
2018-04-13T13:28:00.709Z,77.10
2018-04-13T13:30:30.550Z,77.10
2018-04-13T13:33:00.334Z,76.90
2018-04-13T13:35:30.933Z,77.40
2018-04-13T13:38:00.698Z,77.40
2018-04-13T13:40:31.310Z,77.40
2018-04-13T13:43:01.103Z,77.30
2018-04-13T13:45:31.837Z,77.00
2018-04-13T13:48:01.622Z,76.90
2018-04-13T13:50:32.279Z,77.20
2018-04-13T13:53:02.704Z,77.20
2018-04-13T13:55:32.584Z,78.30
2018-04-13T13:58:03.467Z,77.30
2018-04-13T14:00:34.220Z,77.40
2018-04-13T14:03:03.987Z,77.10
2018-04-13T14:05:34.349Z,77.40
2018-04-13T14:08:04.147Z,77.10
2018-04-13T14:10:34.566Z,77.50
2018-04-13T14:13:04.380Z,77.70
2018-04-13T14:15:34.497Z,77.70
2018-04-13T14:18:04.300Z,77.90
2018-04-13T14:20:34.094Z,77.90
2018-04-13T14:23:04.178Z,77.90
2018-04-13T14:25:35.180Z,78.10
2018-04-13T14:28:05.723Z,78.40
2018-04-13T14:30:36.374Z,78.00
2018-04-13T14:33:06.212Z,77.90
2018-04-13T14:35:37.033Z,78.20
2018-04-13T14:38:12.210Z,78.10
2018-04-13T14:40:42.086Z,78.50
2018-04-13T14:43:11.888Z,79.00
2018-04-13T14:45:41.739Z,78.80
2018-04-13T14:48:11.978Z,78.20
2018-04-13T14:50:41.825Z,78.10
2018-04-13T14:53:11.678Z,78.30
2018-04-13T14:55:43.124Z,78.30
2018-04-13T14:58:13.722Z,78.40
2018-04-13T15:00:44.379Z,78.30
2018-04-13T15:03:14.901Z,77.30
2018-04-13T15:05:45.272Z,77.30
2018-04-13T15:08:15.080Z,77.50
2018-04-13T15:10:45.778Z,78.00
2018-04-13T15:13:16.393Z,78.40
2018-04-13T15:15:46.207Z,78.30
2018-04-13T15:18:16.159Z,78.20
2018-04-13T15:20:46.009Z,78.00
2018-04-13T15:23:15.880Z,77.70
2018-04-13T15:25:46.672Z,77.40
2018-04-13T15:28:16.868Z,77.40
2018-04-13T15:30:47.213Z,77.30
2018-04-13T15:33:17.005Z,77.50
2018-04-13T15:35:47.108Z,77.70
2018-04-13T15:38:16.907Z,77.80
2018-04-13T15:40:46.743Z,77.70
2018-04-13T15:43:16.587Z,77.80
2018-04-13T15:45:47.155Z,78.00
2018-04-13T15:48:17.720Z,78.00
2018-04-13T15:50:47.558Z,77.90
2018-04-13T15:53:17.385Z,78.00
2018-04-13T15:55:47.225Z,77.90
2018-04-13T15:58:17.282Z,77.70
2018-04-13T16:00:47.093Z,77.50
2018-04-13T16:03:17.270Z,77.60
2018-04-13T16:05:47.844Z,77.40
2018-04-13T16:08:17.646Z,77.40
2018-04-13T16:10:47.485Z,77.30
2018-04-13T16:13:17.322Z,77.60
2018-04-13T16:15:47.130Z,77.70
2018-04-13T16:18:16.948Z,77.90
2018-04-13T16:20:46.721Z,77.60
2018-04-13T16:23:16.522Z,77.50
2018-04-13T16:25:46.290Z,77.70
2018-04-13T16:28:16.931Z,77.80
2018-04-13T16:30:47.585Z,77.40
2018-04-13T16:33:17.416Z,77.30
2018-04-13T16:35:47.452Z,77.10
2018-04-13T16:38:18.149Z,76.80
2018-04-13T16:40:47.933Z,76.30
2018-04-13T16:43:18.709Z,76.40
2018-04-13T16:45:48.523Z,76.40
2018-04-13T16:48:18.311Z,76.60
2018-04-13T16:50:48.115Z,77.30
2018-04-13T16:53:17.941Z,76.40
2018-04-13T16:55:47.737Z,76.50
2018-04-13T16:58:17.547Z,76.40
2018-04-13T17:00:47.976Z,76.40
2018-04-13T17:03:19.170Z,76.30
2018-04-13T17:05:49.071Z,76.30
2018-04-13T17:08:18.952Z,76.30
2018-04-13T17:10:49.287Z,76.50
2018-04-13T17:13:19.158Z,76.60
2018-04-13T17:15:49.127Z,77.10
2018-04-13T17:18:19.312Z,77.20
2018-04-13T17:20:49.508Z,77.20
2018-04-13T17:23:20.446Z,77.30
2018-04-13T17:25:50.286Z,77.20
2018-04-13T17:28:20.950Z,77.00
2018-04-13T17:30:50.957Z,77.00
2018-04-13T17:33:20.807Z,77.10
2018-04-13T17:35:50.659Z,77.30
2018-04-13T17:38:20.864Z,77.60
2018-04-13T17:40:51.315Z,77.60
2018-04-13T17:43:21.275Z,77.50
2018-04-13T17:45:51.420Z,77.70
2018-04-13T17:48:22.841Z,77.80
2018-04-13T17:50:53.428Z,78.00
2018-04-13T17:53:23.276Z,78.00
2018-04-13T17:55:53.093Z,78.00
2018-04-13T17:58:22.893Z,78.10
2018-04-13T18:00:53.488Z,77.80
2018-04-13T18:03:24.633Z,77.80
2018-04-13T18:05:55.291Z,78.00
2018-04-13T18:08:25.046Z,77.90
2018-04-13T18:10:55.469Z,78.10
2018-04-13T18:13:26.069Z,78.40
2018-04-13T18:15:55.875Z,78.40
2018-04-13T18:18:25.723Z,78.50
2018-04-13T18:20:55.598Z,78.30
2018-04-13T18:23:25.558Z,78.40
2018-04-13T18:25:55.318Z,78.60
2018-04-13T18:28:25.207Z,78.70
2018-04-13T18:30:55.064Z,78.70
2018-04-13T18:33:26.176Z,79.00
2018-04-13T18:35:56.024Z,78.90
2018-04-13T18:38:25.997Z,78.80
2018-04-13T18:40:57.041Z,78.80
2018-04-13T18:43:27.570Z,78.80
2018-04-13T18:45:58.171Z,78.90
2018-04-13T18:48:27.965Z,78.80
2018-04-13T18:50:58.073Z,79.10
2018-04-13T18:53:27.902Z,79.20
2018-04-13T18:55:57.682Z,79.30
2018-04-13T18:58:27.499Z,79.30
2018-04-13T19:00:57.704Z,79.40
2018-04-13T19:03:27.847Z,79.70
2018-04-13T19:05:58.024Z,79.70
2018-04-13T19:08:28.981Z,79.90
2018-04-13T19:10:58.796Z,79.80
2018-04-13T19:13:29.605Z,79.80
2018-04-13T19:16:00.237Z,79.80
2018-04-13T19:18:30.780Z,80.10
2018-04-13T19:21:01.415Z,80.00
2018-04-13T19:23:31.207Z,80.10
2018-04-13T19:26:01.821Z,80.10
2018-04-13T19:28:31.590Z,80.10
2018-04-13T19:31:01.449Z,80.20
2018-04-13T19:33:31.308Z,80.20
2018-04-13T19:36:01.079Z,80.50
2018-04-13T19:38:31.657Z,81.30
2018-04-13T19:41:02.386Z,81.30
2018-04-13T19:43:32.314Z,81.70
2018-04-13T19:46:02.176Z,81.60
2018-04-13T19:48:32.744Z,81.20
2018-04-13T19:51:02.606Z,81.20
2018-04-13T19:53:32.451Z,81.10
2018-04-13T19:56:02.360Z,81.20
2018-04-13T19:58:32.865Z,81.50
2018-04-13T20:01:03.461Z,81.90
2018-04-13T20:03:33.288Z,81.90
2018-04-13T20:06:03.970Z,81.70
2018-04-13T20:08:33.791Z,81.60
2018-04-13T20:11:03.564Z,81.50
2018-04-13T20:13:33.806Z,82.30
2018-04-13T20:16:04.767Z,81.60
2018-04-13T20:18:34.579Z,81.60
2018-04-13T20:21:05.779Z,81.40
2018-04-13T20:23:35.597Z,81.40
2018-04-13T20:26:06.477Z,81.30
2018-04-13T20:28:36.427Z,81.30
2018-04-13T20:31:06.220Z,81.30
2018-04-13T20:33:36.054Z,81.60
2018-04-13T20:36:05.846Z,81.70
2018-04-13T20:38:36.766Z,81.50
2018-04-13T20:41:06.883Z,81.50
2018-04-13T20:43:36.680Z,81.40
2018-04-13T20:46:07.384Z,81.10
2018-04-13T20:48:37.980Z,81.00
2018-04-13T20:51:07.798Z,81.00
2018-04-13T20:53:37.562Z,80.90
2018-04-13T20:56:08.237Z,80.40
2018-04-13T20:58:38.035Z,80.40
2018-04-13T21:01:08.662Z,80.30
2018-04-13T21:03:38.463Z,80.30
2018-04-13T21:06:09.090Z,80.70
2018-04-13T21:08:39.224Z,79.10
2018-04-13T21:11:09.048Z,80.70
2018-04-13T21:13:39.676Z,80.90
2018-04-13T21:16:09.479Z,80.80
2018-04-13T21:18:40.180Z,81.00
2018-04-13T21:21:10.742Z,80.90
2018-04-13T21:23:42.112Z,80.40
2018-04-13T21:26:11.898Z,80.40
2018-04-13T21:28:41.682Z,80.20
2018-04-13T21:31:12.215Z,80.70
2018-04-13T21:33:42.794Z,80.80
2018-04-13T21:36:12.631Z,80.80
2018-04-13T21:38:42.663Z,80.80
2018-04-13T21:41:13.238Z,80.80
2018-04-13T21:43:43.054Z,80.80
2018-04-13T21:46:12.862Z,80.50
2018-04-13T21:48:42.656Z,80.20
2018-04-13T21:51:12.385Z,79.90
2018-04-13T21:53:43.095Z,79.80
2018-04-13T21:56:12.893Z,79.40
2018-04-13T21:58:44.363Z,79.80
2018-04-13T22:01:14.139Z,79.70
2018-04-13T22:03:43.971Z,79.60
2018-04-13T22:06:14.538Z,79.60
2018-04-13T22:08:44.721Z,79.50
2018-04-13T22:11:15.305Z,79.40
2018-04-13T22:13:48.886Z,79.30
2018-04-13T22:16:19.544Z,78.20
2018-04-13T22:18:49.325Z,78.20
2018-04-13T22:21:19.111Z,78.20
2018-04-13T22:23:48.954Z,78.00
2018-04-13T22:26:18.773Z,77.30
2018-04-13T22:28:48.618Z,76.60
2018-04-13T22:31:18.499Z,76.30
2018-04-13T22:33:48.293Z,76.60
2018-04-13T22:36:18.099Z,76.80
2018-04-13T22:38:47.898Z,75.90
2018-04-13T22:41:17.748Z,76.20
2018-04-13T22:43:47.827Z,77.00
2018-04-13T22:46:18.469Z,77.40
2018-04-13T22:48:48.267Z,77.30
2018-04-13T22:51:18.114Z,77.40
2018-04-13T22:53:47.938Z,77.30
2018-04-13T22:56:17.697Z,77.10
2018-04-13T22:58:48.263Z,76.80
2018-04-13T23:01:18.043Z,76.80
2018-04-13T23:03:49.001Z,76.00
2018-04-13T23:06:18.794Z,75.90
2018-04-13T23:08:49.371Z,76.80
2018-04-13T23:11:19.199Z,76.80
2018-04-13T23:13:48.985Z,76.80
2018-04-13T23:16:18.774Z,76.80
2018-04-13T23:18:48.969Z,76.80
2018-04-13T23:21:19.101Z,76.70
2018-04-13T23:23:50.221Z,76.50
2018-04-13T23:26:20.767Z,76.40
2018-04-13T23:28:51.327Z,76.00
2018-04-13T23:31:21.151Z,76.00
2018-04-13T23:33:50.964Z,75.50
2018-04-13T23:36:21.103Z,76.00
2018-04-13T23:38:50.928Z,76.30
2018-04-13T23:41:20.804Z,75.80
2018-04-13T23:43:50.962Z,76.60
2018-04-13T23:46:21.188Z,76.50
2018-04-13T23:48:51.369Z,76.60
2018-04-13T23:51:21.592Z,76.60
2018-04-13T23:53:51.899Z,76.30
2018-04-13T23:56:21.998Z,76.20
2018-04-13T23:58:53.041Z,75.10
